sensor_id;sensor_type;location;lat;lon;timestamp;temperature;humidity
71039;SHT30;58692;43.212;27.908;2023-03-16T00:01:19;9.94;88.74
71039;SHT30;58692;43.212;27.908;2023-03-16T00:03:46;9.98;88.79
71039;SHT30;58692;43.212;27.908;2023-03-16T00:06:11;9.95;88.84
71039;SHT30;58692;43.212;27.908;2023-03-16T00:08:37;9.98;88.72
71039;SHT30;58692;43.212;27.908;2023-03-16T00:11:03;10.08;88.53
71039;SHT30;58692;43.212;27.908;2023-03-16T00:13:29;10.09;88.22
71039;SHT30;58692;43.212;27.908;2023-03-16T00:15:58;10.12;88.15
71039;SHT30;58692;43.212;27.908;2023-03-16T00:18:26;10.15;88.04
71039;SHT30;58692;43.212;27.908;2023-03-16T00:20:54;10.18;88.00
71039;SHT30;58692;43.212;27.908;2023-03-16T00:23:21;10.21;87.85
71039;SHT30;58692;43.212;27.908;2023-03-16T00:25:57;10.29;87.55
71039;SHT30;58692;43.212;27.908;2023-03-16T00:28:23;10.12;88.29
71039;SHT30;58692;43.212;27.908;2023-03-16T00:30:49;9.98;88.74
71039;SHT30;58692;43.212;27.908;2023-03-16T00:33:15;10.03;88.90
71039;SHT30;58692;43.212;27.908;2023-03-16T00:35:40;9.99;89.07
71039;SHT30;58692;43.212;27.908;2023-03-16T00:38:16;9.94;89.31
71039;SHT30;58692;43.212;27.908;2023-03-16T00:40:42;10.01;89.14
71039;SHT30;58692;43.212;27.908;2023-03-16T00:43:08;10.09;89.00
71039;SHT30;58692;43.212;27.908;2023-03-16T00:45:33;10.18;88.59
71039;SHT30;58692;43.212;27.908;2023-03-16T00:47:59;10.16;88.54
71039;SHT30;58692;43.212;27.908;2023-03-16T00:50:24;10.23;88.19
71039;SHT30;58692;43.212;27.908;2023-03-16T00:52:51;10.28;87.95
71039;SHT30;58692;43.212;27.908;2023-03-16T00:55:19;10.29;87.82
71039;SHT30;58692;43.212;27.908;2023-03-16T00:57:45;10.25;87.91
71039;SHT30;58692;43.212;27.908;2023-03-16T01:00:11;10.32;87.67
71039;SHT30;58692;43.212;27.908;2023-03-16T01:02:40;10.33;87.61
71039;SHT30;58692;43.212;27.908;2023-03-16T01:05:06;10.31;87.54
71039;SHT30;58692;43.212;27.908;2023-03-16T01:07:31;10.35;87.58
71039;SHT30;58692;43.212;27.908;2023-03-16T01:10:00;10.32;87.56
71039;SHT30;58692;43.212;27.908;2023-03-16T01:12:26;10.25;87.66
71039;SHT30;58692;43.212;27.908;2023-03-16T01:14:52;10.19;87.84
71039;SHT30;58692;43.212;27.908;2023-03-16T01:17:18;10.22;87.73
71039;SHT30;58692;43.212;27.908;2023-03-16T01:19:44;10.22;87.63
71039;SHT30;58692;43.212;27.908;2023-03-16T01:22:10;10.09;88.06
71039;SHT30;58692;43.212;27.908;2023-03-16T01:24:36;10.16;87.77
71039;SHT30;58692;43.212;27.908;2023-03-16T01:27:03;10.21;87.40
71039;SHT30;58692;43.212;27.908;2023-03-16T01:29:29;10.18;87.34
71039;SHT30;58692;43.212;27.908;2023-03-16T01:31:54;10.01;87.69
71039;SHT30;58692;43.212;27.908;2023-03-16T01:34:21;9.95;88.05
71039;SHT30;58692;43.212;27.908;2023-03-16T01:36:48;9.95;88.01
71039;SHT30;58692;43.212;27.908;2023-03-16T01:39:14;10.03;87.77
71039;SHT30;58692;43.212;27.908;2023-03-16T01:41:41;10.03;87.66
71039;SHT30;58692;43.212;27.908;2023-03-16T01:44:13;10.06;87.57
71039;SHT30;58692;43.212;27.908;2023-03-16T01:46:40;10.11;87.39
71039;SHT30;58692;43.212;27.908;2023-03-16T01:49:21;9.99;87.59
71039;SHT30;58692;43.212;27.908;2023-03-16T01:51:52;10.06;87.34
71039;SHT30;58692;43.212;27.908;2023-03-16T01:54:31;10.13;87.05
71039;SHT30;58692;43.212;27.908;2023-03-16T01:57:06;10.11;86.92
71039;SHT30;58692;43.212;27.908;2023-03-16T02:02:21;10.13;86.77
71039;SHT30;58692;43.212;27.908;2023-03-16T02:04:49;10.16;86.53
71039;SHT30;58692;43.212;27.908;2023-03-16T02:07:17;10.13;86.54
71039;SHT30;58692;43.212;27.908;2023-03-16T02:09:45;10.13;86.52
71039;SHT30;58692;43.212;27.908;2023-03-16T02:12:14;10.19;86.42
71039;SHT30;58692;43.212;27.908;2023-03-16T02:14:44;10.22;86.31
71039;SHT30;58692;43.212;27.908;2023-03-16T02:17:11;10.15;86.60
71039;SHT30;58692;43.212;27.908;2023-03-16T02:22:11;10.19;86.57
71039;SHT30;58692;43.212;27.908;2023-03-16T02:24:38;10.21;86.47
71039;SHT30;58692;43.212;27.908;2023-03-16T02:27:07;10.12;86.93
71039;SHT30;58692;43.212;27.908;2023-03-16T02:32:17;9.85;87.80
71039;SHT30;58692;43.212;27.908;2023-03-16T02:34:43;9.91;87.43
71039;SHT30;58692;43.212;27.908;2023-03-16T02:37:09;9.97;87.38
71039;SHT30;58692;43.212;27.908;2023-03-16T02:39:36;9.99;87.19
71039;SHT30;58692;43.212;27.908;2023-03-16T02:42:01;9.97;87.22
71039;SHT30;58692;43.212;27.908;2023-03-16T02:44:31;9.99;87.19
71039;SHT30;58692;43.212;27.908;2023-03-16T02:47:02;10.02;87.27
71039;SHT30;58692;43.212;27.908;2023-03-16T02:49:34;10.06;87.13
71039;SHT30;58692;43.212;27.908;2023-03-16T02:52:03;10.03;87.32
71039;SHT30;58692;43.212;27.908;2023-03-16T02:54:29;10.06;87.10
71039;SHT30;58692;43.212;27.908;2023-03-16T02:56:54;10.11;87.02
71039;SHT30;58692;43.212;27.908;2023-03-16T02:59:20;10.13;86.83
71039;SHT30;58692;43.212;27.908;2023-03-16T03:01:45;10.12;86.81
71039;SHT30;58692;43.212;27.908;2023-03-16T03:04:12;10.16;86.58
71039;SHT30;58692;43.212;27.908;2023-03-16T03:06:37;10.15;86.62
71039;SHT30;58692;43.212;27.908;2023-03-16T03:09:04;10.08;86.72
71039;SHT30;58692;43.212;27.908;2023-03-16T03:11:30;10.13;86.54
71039;SHT30;58692;43.212;27.908;2023-03-16T03:13:56;10.13;86.58
71039;SHT30;58692;43.212;27.908;2023-03-16T03:16:21;9.97;86.39
71039;SHT30;58692;43.212;27.908;2023-03-16T03:18:47;10.02;86.23
71039;SHT30;58692;43.212;27.908;2023-03-16T03:21:13;10.03;86.01
71039;SHT30;58692;43.212;27.908;2023-03-16T03:23:38;10.06;85.85
71039;SHT30;58692;43.212;27.908;2023-03-16T03:26:05;10.11;85.86
71039;SHT30;58692;43.212;27.908;2023-03-16T03:28:31;10.12;85.72
71039;SHT30;58692;43.212;27.908;2023-03-16T03:30:59;10.11;85.66
71039;SHT30;58692;43.212;27.908;2023-03-16T03:33:26;10.12;85.62
71039;SHT30;58692;43.212;27.908;2023-03-16T03:35:54;10.06;86.22
71039;SHT30;58692;43.212;27.908;2023-03-16T03:38:20;10.08;86.32
71039;SHT30;58692;43.212;27.908;2023-03-16T03:40:50;10.15;86.41
71039;SHT30;58692;43.212;27.908;2023-03-16T03:43:15;10.13;86.52
71039;SHT30;58692;43.212;27.908;2023-03-16T03:45:41;10.09;86.73
71039;SHT30;58692;43.212;27.908;2023-03-16T03:48:06;10.11;86.83
71039;SHT30;58692;43.212;27.908;2023-03-16T03:50:32;10.12;86.95
71039;SHT30;58692;43.212;27.908;2023-03-16T03:52:57;10.06;87.23
71039;SHT30;58692;43.212;27.908;2023-03-16T03:55:23;10.08;87.48
71039;SHT30;58692;43.212;27.908;2023-03-16T03:57:48;10.03;88.36
71039;SHT30;58692;43.212;27.908;2023-03-16T04:00:14;10.03;89.11
71039;SHT30;58692;43.212;27.908;2023-03-16T04:02:40;9.99;89.42
71039;SHT30;58692;43.212;27.908;2023-03-16T04:05:06;10.05;89.47
71039;SHT30;58692;43.212;27.908;2023-03-16T04:07:32;10.08;89.33
71039;SHT30;58692;43.212;27.908;2023-03-16T04:09:57;9.99;89.31
71039;SHT30;58692;43.212;27.908;2023-03-16T04:12:23;9.97;89.47
71039;SHT30;58692;43.212;27.908;2023-03-16T04:14:49;10.01;89.57
71039;SHT30;58692;43.212;27.908;2023-03-16T04:17:16;10.01;89.63
71039;SHT30;58692;43.212;27.908;2023-03-16T04:19:41;9.95;90.25
71039;SHT30;58692;43.212;27.908;2023-03-16T04:22:07;9.98;90.02
71039;SHT30;58692;43.212;27.908;2023-03-16T04:24:33;9.97;89.98
71039;SHT30;58692;43.212;27.908;2023-03-16T04:26:59;9.97;90.33
71039;SHT30;58692;43.212;27.908;2023-03-16T04:29:25;10.01;90.36
71039;SHT30;58692;43.212;27.908;2023-03-16T04:31:51;9.97;90.40
71039;SHT30;58692;43.212;27.908;2023-03-16T04:34:18;10.05;90.78
71039;SHT30;58692;43.212;27.908;2023-03-16T04:36:44;10.02;90.81
71039;SHT30;58692;43.212;27.908;2023-03-16T04:39:09;9.94;90.66
71039;SHT30;58692;43.212;27.908;2023-03-16T04:41:35;9.98;90.48
71039;SHT30;58692;43.212;27.908;2023-03-16T04:44:01;9.84;90.91
71039;SHT30;58692;43.212;27.908;2023-03-16T04:46:26;9.82;90.93
71039;SHT30;58692;43.212;27.908;2023-03-16T04:48:52;9.82;90.96
71039;SHT30;58692;43.212;27.908;2023-03-16T04:51:18;9.81;91.20
71039;SHT30;58692;43.212;27.908;2023-03-16T04:53:43;9.88;91.36
71039;SHT30;58692;43.212;27.908;2023-03-16T04:56:10;9.88;91.82
71039;SHT30;58692;43.212;27.908;2023-03-16T04:58:43;9.97;91.58
71039;SHT30;58692;43.212;27.908;2023-03-16T05:01:09;9.87;92.18
71039;SHT30;58692;43.212;27.908;2023-03-16T05:03:34;9.95;91.96
71039;SHT30;58692;43.212;27.908;2023-03-16T05:06:00;9.95;91.96
71039;SHT30;58692;43.212;27.908;2023-03-16T05:08:25;9.87;91.58
71039;SHT30;58692;43.212;27.908;2023-03-16T05:10:55;9.87;91.80
71039;SHT30;58692;43.212;27.908;2023-03-16T05:13:21;9.82;91.76
71039;SHT30;58692;43.212;27.908;2023-03-16T05:15:47;9.84;91.65
71039;SHT30;58692;43.212;27.908;2023-03-16T05:18:13;9.80;91.79
71039;SHT30;58692;43.212;27.908;2023-03-16T05:20:39;9.67;92.29
71039;SHT30;58692;43.212;27.908;2023-03-16T05:23:05;9.88;92.46
71039;SHT30;58692;43.212;27.908;2023-03-16T05:25:33;9.91;92.68
71039;SHT30;58692;43.212;27.908;2023-03-16T05:28:01;9.90;92.32
71039;SHT30;58692;43.212;27.908;2023-03-16T05:30:26;9.88;92.70
71039;SHT30;58692;43.212;27.908;2023-03-16T05:32:52;9.92;92.55
71039;SHT30;58692;43.212;27.908;2023-03-16T05:35:19;9.84;92.86
71039;SHT30;58692;43.212;27.908;2023-03-16T05:37:58;9.88;92.82
71039;SHT30;58692;43.212;27.908;2023-03-16T05:40:26;9.80;92.94
71039;SHT30;58692;43.212;27.908;2023-03-16T05:42:55;9.84;92.87
71039;SHT30;58692;43.212;27.908;2023-03-16T05:45:25;9.92;92.92
71039;SHT30;58692;43.212;27.908;2023-03-16T05:47:50;9.90;92.84
71039;SHT30;58692;43.212;27.908;2023-03-16T05:50:17;9.82;92.79
71039;SHT30;58692;43.212;27.908;2023-03-16T05:52:44;9.65;93.24
71039;SHT30;58692;43.212;27.908;2023-03-16T05:55:14;9.55;93.46
71039;SHT30;58692;43.212;27.908;2023-03-16T05:57:43;9.64;93.75
71039;SHT30;58692;43.212;27.908;2023-03-16T06:00:11;9.65;93.73
71039;SHT30;58692;43.212;27.908;2023-03-16T06:02:43;9.61;93.49
71039;SHT30;58692;43.212;27.908;2023-03-16T06:05:11;9.62;93.57
71039;SHT30;58692;43.212;27.908;2023-03-16T06:07:37;9.71;93.35
71039;SHT30;58692;43.212;27.908;2023-03-16T06:10:06;9.75;93.15
71039;SHT30;58692;43.212;27.908;2023-03-16T06:12:32;9.71;93.21
71039;SHT30;58692;43.212;27.908;2023-03-16T06:15:02;9.61;93.08
71039;SHT30;58692;43.212;27.908;2023-03-16T06:17:34;9.61;93.14
71039;SHT30;58692;43.212;27.908;2023-03-16T06:20:00;9.65;93.16
71039;SHT30;58692;43.212;27.908;2023-03-16T06:22:29;9.75;93.15
71039;SHT30;58692;43.212;27.908;2023-03-16T06:24:55;9.82;92.76
71039;SHT30;58692;43.212;27.908;2023-03-16T06:27:21;9.78;92.65
71039;SHT30;58692;43.212;27.908;2023-03-16T06:29:49;9.73;93.23
71039;SHT30;58692;43.212;27.908;2023-03-16T06:35:31;9.68;93.03
71039;SHT30;58692;43.212;27.908;2023-03-16T06:38:01;9.71;92.86
71039;SHT30;58692;43.212;27.908;2023-03-16T06:40:41;9.80;93.06
71039;SHT30;58692;43.212;27.908;2023-03-16T06:43:09;9.87;93.10
71039;SHT30;58692;43.212;27.908;2023-03-16T06:45:43;9.85;92.90
71039;SHT30;58692;43.212;27.908;2023-03-16T06:48:09;9.75;92.74
71039;SHT30;58692;43.212;27.908;2023-03-16T06:50:35;9.75;92.61
71039;SHT30;58692;43.212;27.908;2023-03-16T06:53:03;9.84;92.99
71039;SHT30;58692;43.212;27.908;2023-03-16T06:55:32;9.82;93.17
71039;SHT30;58692;43.212;27.908;2023-03-16T06:57:58;9.75;93.22
71039;SHT30;58692;43.212;27.908;2023-03-16T07:00:23;9.78;93.15
71039;SHT30;58692;43.212;27.908;2023-03-16T07:02:49;9.54;92.86
71039;SHT30;58692;43.212;27.908;2023-03-16T07:05:15;9.54;92.99
71039;SHT30;58692;43.212;27.908;2023-03-16T07:07:41;9.46;93.39
71039;SHT30;58692;43.212;27.908;2023-03-16T07:10:13;9.47;94.04
71039;SHT30;58692;43.212;27.908;2023-03-16T07:12:40;9.54;93.84
71039;SHT30;58692;43.212;27.908;2023-03-16T07:15:07;9.46;93.99
71039;SHT30;58692;43.212;27.908;2023-03-16T07:17:32;9.48;94.27
71039;SHT30;58692;43.212;27.908;2023-03-16T07:19:58;9.58;94.28
71039;SHT30;58692;43.212;27.908;2023-03-16T07:22:29;9.48;94.30
71039;SHT30;58692;43.212;27.908;2023-03-16T07:24:55;9.37;94.76
71039;SHT30;58692;43.212;27.908;2023-03-16T07:27:23;9.47;94.08
71039;SHT30;58692;43.212;27.908;2023-03-16T07:29:49;9.39;94.44
71039;SHT30;58692;43.212;27.908;2023-03-16T07:32:15;9.30;94.71
71039;SHT30;58692;43.212;27.908;2023-03-16T07:34:40;9.22;94.68
71039;SHT30;58692;43.212;27.908;2023-03-16T07:37:09;9.27;94.58
71039;SHT30;58692;43.212;27.908;2023-03-16T07:39:35;9.23;95.44
71039;SHT30;58692;43.212;27.908;2023-03-16T07:42:01;9.07;95.57
71039;SHT30;58692;43.212;27.908;2023-03-16T07:44:44;9.20;95.20
71039;SHT30;58692;43.212;27.908;2023-03-16T07:47:21;9.23;95.55
71039;SHT30;58692;43.212;27.908;2023-03-16T07:49:57;9.29;95.32
71039;SHT30;58692;43.212;27.908;2023-03-16T07:52:26;9.17;95.62
71039;SHT30;58692;43.212;27.908;2023-03-16T07:54:51;9.13;95.29
71039;SHT30;58692;43.212;27.908;2023-03-16T07:57:23;9.17;95.91
71039;SHT30;58692;43.212;27.908;2023-03-16T08:00:21;9.22;94.32
71039;SHT30;58692;43.212;27.908;2023-03-16T08:02:49;9.26;94.35
71039;SHT30;58692;43.212;27.908;2023-03-16T08:05:20;9.30;94.39
71039;SHT30;58692;43.212;27.908;2023-03-16T08:07:54;9.26;93.47
71039;SHT30;58692;43.212;27.908;2023-03-16T08:13:57;9.24;93.49
71039;SHT30;58692;43.212;27.908;2023-03-16T08:16:23;9.29;93.28
71039;SHT30;58692;43.212;27.908;2023-03-16T08:18:49;9.37;93.44
71039;SHT30;58692;43.212;27.908;2023-03-16T08:21:19;9.40;93.43
71039;SHT30;58692;43.212;27.908;2023-03-16T08:23:50;9.33;92.99
71039;SHT30;58692;43.212;27.908;2023-03-16T08:26:41;9.23;92.69
71039;SHT30;58692;43.212;27.908;2023-03-16T08:29:18;9.24;92.87
71039;SHT30;58692;43.212;27.908;2023-03-16T08:31:47;9.09;92.83
71039;SHT30;58692;43.212;27.908;2023-03-16T08:34:12;8.95;93.52
71039;SHT30;58692;43.212;27.908;2023-03-16T08:36:38;8.97;93.29
71039;SHT30;58692;43.212;27.908;2023-03-16T08:39:18;8.99;93.24
71039;SHT30;58692;43.212;27.908;2023-03-16T08:41:49;9.07;93.52
71039;SHT30;58692;43.212;27.908;2023-03-16T08:44:15;9.12;92.85
71039;SHT30;58692;43.212;27.908;2023-03-16T08:46:48;9.10;92.93
71039;SHT30;58692;43.212;27.908;2023-03-16T08:49:13;9.19;92.96
71039;SHT30;58692;43.212;27.908;2023-03-16T08:51:39;9.13;92.45
71039;SHT30;58692;43.212;27.908;2023-03-16T08:54:05;9.23;92.70
71039;SHT30;58692;43.212;27.908;2023-03-16T08:56:30;9.33;92.72
71039;SHT30;58692;43.212;27.908;2023-03-16T08:58:57;9.44;92.03
71039;SHT30;58692;43.212;27.908;2023-03-16T09:01:23;9.31;91.97
71039;SHT30;58692;43.212;27.908;2023-03-16T09:03:49;9.36;91.81
71039;SHT30;58692;43.212;27.908;2023-03-16T09:06:17;9.37;91.99
71039;SHT30;58692;43.212;27.908;2023-03-16T09:08:46;9.27;91.62
71039;SHT30;58692;43.212;27.908;2023-03-16T09:11:14;9.27;91.68
71039;SHT30;58692;43.212;27.908;2023-03-16T09:13:41;9.30;91.29
71039;SHT30;58692;43.212;27.908;2023-03-16T09:16:08;9.16;92.04
71039;SHT30;58692;43.212;27.908;2023-03-16T09:18:34;9.31;92.09
71039;SHT30;58692;43.212;27.908;2023-03-16T09:21:03;9.36;91.68
71039;SHT30;58692;43.212;27.908;2023-03-16T09:23:32;9.48;91.31
71039;SHT30;58692;43.212;27.908;2023-03-16T09:26:04;9.36;90.83
71039;SHT30;58692;43.212;27.908;2023-03-16T09:28:32;9.33;91.47
71039;SHT30;58692;43.212;27.908;2023-03-16T09:31:04;9.33;91.08
71039;SHT30;58692;43.212;27.908;2023-03-16T09:33:34;9.20;91.35
71039;SHT30;58692;43.212;27.908;2023-03-16T09:36:03;9.19;91.13
71039;SHT30;58692;43.212;27.908;2023-03-16T09:38:39;9.15;91.44
71039;SHT30;58692;43.212;27.908;2023-03-16T09:44:04;9.16;92.45
71039;SHT30;58692;43.212;27.908;2023-03-16T09:46:39;9.30;91.97
71039;SHT30;58692;43.212;27.908;2023-03-16T09:49:09;9.12;90.48
71039;SHT30;58692;43.212;27.908;2023-03-16T09:51:43;9.15;91.21
71039;SHT30;58692;43.212;27.908;2023-03-16T09:57:26;9.19;91.63
71039;SHT30;58692;43.212;27.908;2023-03-16T09:59:54;9.12;91.24
71039;SHT30;58692;43.212;27.908;2023-03-16T10:02:43;9.22;91.29
71039;SHT30;58692;43.212;27.908;2023-03-16T10:05:13;9.30;91.40
71039;SHT30;58692;43.212;27.908;2023-03-16T10:16:08;9.27;90.71
71039;SHT30;58692;43.212;27.908;2023-03-16T10:18:41;9.24;91.26
71039;SHT30;58692;43.212;27.908;2023-03-16T10:21:13;9.13;91.11
71039;SHT30;58692;43.212;27.908;2023-03-16T10:23:40;9.13;91.75
71039;SHT30;58692;43.212;27.908;2023-03-16T10:26:20;9.05;91.63
71039;SHT30;58692;43.212;27.908;2023-03-16T10:28:50;9.02;91.46
71039;SHT30;58692;43.212;27.908;2023-03-16T10:31:20;9.03;90.91
71039;SHT30;58692;43.212;27.908;2023-03-16T10:33:48;9.05;91.52
71039;SHT30;58692;43.212;27.908;2023-03-16T10:36:27;9.02;91.63
71039;SHT30;58692;43.212;27.908;2023-03-16T10:38:58;8.96;91.55
71039;SHT30;58692;43.212;27.908;2023-03-16T10:41:31;9.02;91.07
71039;SHT30;58692;43.212;27.908;2023-03-16T10:44:08;9.20;91.33
71039;SHT30;58692;43.212;27.908;2023-03-16T10:46:39;9.34;91.29
71039;SHT30;58692;43.212;27.908;2023-03-16T10:49:16;9.34;90.68
71039;SHT30;58692;43.212;27.908;2023-03-16T10:51:42;9.50;90.45
71039;SHT30;58692;43.212;27.908;2023-03-16T10:54:15;9.47;90.04
71039;SHT30;58692;43.212;27.908;2023-03-16T10:56:44;9.29;89.41
71039;SHT30;58692;43.212;27.908;2023-03-16T10:59:13;9.33;89.75
71039;SHT30;58692;43.212;27.908;2023-03-16T11:01:50;9.40;90.03
71039;SHT30;58692;43.212;27.908;2023-03-16T11:04:17;9.58;90.01
71039;SHT30;58692;43.212;27.908;2023-03-16T11:06:52;9.73;89.70
71039;SHT30;58692;43.212;27.908;2023-03-16T11:09:24;9.70;89.22
71039;SHT30;58692;43.212;27.908;2023-03-16T11:11:54;9.74;88.13
71039;SHT30;58692;43.212;27.908;2023-03-16T11:14:22;9.81;88.07
71039;SHT30;58692;43.212;27.908;2023-03-16T11:17:01;9.75;87.85
71039;SHT30;58692;43.212;27.908;2023-03-16T11:24:49;9.65;87.84
71039;SHT30;58692;43.212;27.908;2023-03-16T11:30:04;10.06;88.05
71039;SHT30;58692;43.212;27.908;2023-03-16T11:32:37;10.11;87.12
71039;SHT30;58692;43.212;27.908;2023-03-16T11:35:13;10.01;86.97
71039;SHT30;58692;43.212;27.908;2023-03-16T11:48:28;9.99;86.40
71039;SHT30;58692;43.212;27.908;2023-03-16T11:51:03;10.09;86.54
71039;SHT30;58692;43.212;27.908;2023-03-16T11:56:42;9.92;87.94
71039;SHT30;58692;43.212;27.908;2023-03-16T11:59:16;9.94;87.29
71039;SHT30;58692;43.212;27.908;2023-03-16T12:04:54;9.92;88.81
71039;SHT30;58692;43.212;27.908;2023-03-16T12:07:45;9.74;89.12
71039;SHT30;58692;43.212;27.908;2023-03-16T12:10:26;9.77;89.19
71039;SHT30;58692;43.212;27.908;2023-03-16T12:13:18;9.78;88.93
71039;SHT30;58692;43.212;27.908;2023-03-16T12:15:59;9.62;89.20
71039;SHT30;58692;43.212;27.908;2023-03-16T12:18:38;9.61;89.40
71039;SHT30;58692;43.212;27.908;2023-03-16T12:21:14;9.31;91.33
71039;SHT30;58692;43.212;27.908;2023-03-16T12:23:58;9.29;91.08
71039;SHT30;58692;43.212;27.908;2023-03-16T12:26:27;9.33;90.99
71039;SHT30;58692;43.212;27.908;2023-03-16T12:28:55;9.33;91.42
71039;SHT30;58692;43.212;27.908;2023-03-16T12:31:35;9.44;91.49
71039;SHT30;58692;43.212;27.908;2023-03-16T12:42:38;9.82;90.91
71039;SHT30;58692;43.212;27.908;2023-03-16T12:45:10;9.80;89.55
71039;SHT30;58692;43.212;27.908;2023-03-16T12:47:44;9.65;88.66
71039;SHT30;58692;43.212;27.908;2023-03-16T12:50:15;9.77;88.87
71039;SHT30;58692;43.212;27.908;2023-03-16T12:52:42;9.64;87.46
71039;SHT30;58692;43.212;27.908;2023-03-16T12:55:18;9.55;87.31
71039;SHT30;58692;43.212;27.908;2023-03-16T12:57:47;9.60;87.87
71039;SHT30;58692;43.212;27.908;2023-03-16T13:00:14;9.62;86.93
71039;SHT30;58692;43.212;27.908;2023-03-16T13:02:46;9.55;88.40
71039;SHT30;58692;43.212;27.908;2023-03-16T13:05:16;9.57;87.98
71039;SHT30;58692;43.212;27.908;2023-03-16T13:07:52;9.57;88.65
71039;SHT30;58692;43.212;27.908;2023-03-16T13:10:28;9.51;89.21
71039;SHT30;58692;43.212;27.908;2023-03-16T13:12:54;9.52;89.82
71039;SHT30;58692;43.212;27.908;2023-03-16T13:17:49;9.31;90.08
71039;SHT30;58692;43.212;27.908;2023-03-16T13:20:27;9.20;90.38
71039;SHT30;58692;43.212;27.908;2023-03-16T13:23:26;9.19;91.36
71039;SHT30;58692;43.212;27.908;2023-03-16T13:26:09;9.22;91.29
71039;SHT30;58692;43.212;27.908;2023-03-16T13:28:38;9.19;92.01
71039;SHT30;58692;43.212;27.908;2023-03-16T13:33:56;9.24;91.90
71039;SHT30;58692;43.212;27.908;2023-03-16T13:36:26;9.30;90.87
71039;SHT30;58692;43.212;27.908;2023-03-16T13:38:56;9.29;91.58
71039;SHT30;58692;43.212;27.908;2023-03-16T13:41:22;9.26;90.90
71039;SHT30;58692;43.212;27.908;2023-03-16T13:43:49;9.26;90.40
71039;SHT30;58692;43.212;27.908;2023-03-16T13:46:18;9.34;90.32
71039;SHT30;58692;43.212;27.908;2023-03-16T13:48:46;9.39;89.74
71039;SHT30;58692;43.212;27.908;2023-03-16T13:51:17;9.24;89.88
71039;SHT30;58692;43.212;27.908;2023-03-16T13:53:43;9.20;91.05
71039;SHT30;58692;43.212;27.908;2023-03-16T13:56:14;9.23;91.20
71039;SHT30;58692;43.212;27.908;2023-03-16T13:58:46;9.31;91.31
71039;SHT30;58692;43.212;27.908;2023-03-16T14:01:23;9.22;90.53
71039;SHT30;58692;43.212;27.908;2023-03-16T14:03:49;9.23;91.17
71039;SHT30;58692;43.212;27.908;2023-03-16T14:06:22;9.07;88.82
71039;SHT30;58692;43.212;27.908;2023-03-16T14:08:51;8.88;89.07
71039;SHT30;58692;43.212;27.908;2023-03-16T14:11:18;8.89;89.55
71039;SHT30;58692;43.212;27.908;2023-03-16T14:13:50;8.83;88.90
71039;SHT30;58692;43.212;27.908;2023-03-16T14:16:18;8.85;89.55
71039;SHT30;58692;43.212;27.908;2023-03-16T14:18:47;8.85;88.29
71039;SHT30;58692;43.212;27.908;2023-03-16T14:21:15;8.76;88.55
71039;SHT30;58692;43.212;27.908;2023-03-16T14:23:44;8.68;88.62
71039;SHT30;58692;43.212;27.908;2023-03-16T14:26:13;8.61;88.48
71039;SHT30;58692;43.212;27.908;2023-03-16T14:31:20;8.65;90.30
71039;SHT30;58692;43.212;27.908;2023-03-16T14:33:46;8.59;88.96
71039;SHT30;58692;43.212;27.908;2023-03-16T14:36:15;8.52;88.45
71039;SHT30;58692;43.212;27.908;2023-03-16T14:38:43;8.51;88.29
71039;SHT30;58692;43.212;27.908;2023-03-16T14:43:39;8.35;88.06
71039;SHT30;58692;43.212;27.908;2023-03-16T14:46:14;8.41;87.65
71039;SHT30;58692;43.212;27.908;2023-03-16T14:48:40;8.40;88.27
71039;SHT30;58692;43.212;27.908;2023-03-16T14:51:11;8.46;88.48
71039;SHT30;58692;43.212;27.908;2023-03-16T14:53:40;8.44;88.25
71039;SHT30;58692;43.212;27.908;2023-03-16T14:56:11;8.45;88.40
71039;SHT30;58692;43.212;27.908;2023-03-16T14:58:39;8.40;88.14
71039;SHT30;58692;43.212;27.908;2023-03-16T15:01:05;8.41;88.07
71039;SHT30;58692;43.212;27.908;2023-03-16T15:03:38;8.34;88.40
71039;SHT30;58692;43.212;27.908;2023-03-16T15:06:06;8.45;89.16
71039;SHT30;58692;43.212;27.908;2023-03-16T15:08:32;8.51;89.35
71039;SHT30;58692;43.212;27.908;2023-03-16T15:11:03;8.51;88.45
71039;SHT30;58692;43.212;27.908;2023-03-16T15:13:30;8.51;88.24
71039;SHT30;58692;43.212;27.908;2023-03-16T15:16:10;8.45;88.09
71039;SHT30;58692;43.212;27.908;2023-03-16T15:18:37;8.58;88.96
71039;SHT30;58692;43.212;27.908;2023-03-16T15:21:10;8.41;88.61
71039;SHT30;58692;43.212;27.908;2023-03-16T15:23:37;8.35;88.06
71039;SHT30;58692;43.212;27.908;2023-03-16T15:26:03;8.27;89.12
71039;SHT30;58692;43.212;27.908;2023-03-16T15:28:32;8.20;87.99
71039;SHT30;58692;43.212;27.908;2023-03-16T15:31:00;8.31;89.31
71039;SHT30;58692;43.212;27.908;2023-03-16T15:33:26;8.20;90.05
71039;SHT30;58692;43.212;27.908;2023-03-16T15:35:54;8.30;90.03
71039;SHT30;58692;43.212;27.908;2023-03-16T15:38:36;8.17;88.71
71039;SHT30;58692;43.212;27.908;2023-03-16T15:41:08;8.17;89.39
71039;SHT30;58692;43.212;27.908;2023-03-16T15:43:34;8.10;89.75
71039;SHT30;58692;43.212;27.908;2023-03-16T15:46:00;8.13;90.31
71039;SHT30;58692;43.212;27.908;2023-03-16T15:48:35;7.90;88.14
71039;SHT30;58692;43.212;27.908;2023-03-16T15:51:06;7.97;89.12
71039;SHT30;58692;43.212;27.908;2023-03-16T15:53:44;7.89;89.07
71039;SHT30;58692;43.212;27.908;2023-03-16T15:56:14;7.93;88.80
71039;SHT30;58692;43.212;27.908;2023-03-16T15:58:43;7.97;89.14
71039;SHT30;58692;43.212;27.908;2023-03-16T16:01:20;8.01;88.92
71039;SHT30;58692;43.212;27.908;2023-03-16T16:03:46;7.91;89.24
71039;SHT30;58692;43.212;27.908;2023-03-16T16:06:13;7.98;88.96
71039;SHT30;58692;43.212;27.908;2023-03-16T16:08:48;7.84;87.40
71039;SHT30;58692;43.212;27.908;2023-03-16T16:11:18;7.80;88.05
71039;SHT30;58692;43.212;27.908;2023-03-16T16:13:45;7.73;87.76
71039;SHT30;58692;43.212;27.908;2023-03-16T16:16:13;7.72;88.33
71039;SHT30;58692;43.212;27.908;2023-03-16T16:18:39;7.65;88.21
71039;SHT30;58692;43.212;27.908;2023-03-16T16:21:06;7.60;87.98
71039;SHT30;58692;43.212;27.908;2023-03-16T16:23:33;7.73;89.03
71039;SHT30;58692;43.212;27.908;2023-03-16T16:26:02;7.58;89.74
71039;SHT30;58692;43.212;27.908;2023-03-16T16:28:33;7.52;89.34
71039;SHT30;58692;43.212;27.908;2023-03-16T16:31:00;7.59;89.79
71039;SHT30;58692;43.212;27.908;2023-03-16T16:33:34;7.60;89.33
71039;SHT30;58692;43.212;27.908;2023-03-16T16:36:04;7.39;89.65
71039;SHT30;58692;43.212;27.908;2023-03-16T16:38:30;7.52;89.75
71039;SHT30;58692;43.212;27.908;2023-03-16T16:40:59;7.48;89.12
71039;SHT30;58692;43.212;27.908;2023-03-16T16:43:39;7.40;89.22
71039;SHT30;58692;43.212;27.908;2023-03-16T16:46:20;7.46;89.23
71039;SHT30;58692;43.212;27.908;2023-03-16T16:48:52;7.52;88.54
71039;SHT30;58692;43.212;27.908;2023-03-16T16:51:22;7.59;89.14
71039;SHT30;58692;43.212;27.908;2023-03-16T16:53:52;7.49;88.65